Time;durP1;ratioP1;P1;durP2;ratioP2;P2;SDS_P1;SDS_P2;PMS_P1;PMS_P2;Temp;Humidity;BMP_temperature;BMP_pressure;BME280_temperature;BME280_humidity;BME280_pressure;Samples;Min_cycle;Max_cycle;Signal;HPM_P1;HPM_P2
2022/12/09 00:01:37;;;;;;;26.83;12.38;;;-1.60;99.90;;;;;;5048228;28;20446;-46
2022/12/09 00:04:02;;;;;;;32.00;13.00;;;-1.60;99.90;;;;;;5065323;28;20042;-46
2022/12/09 00:06:29;;;;;;;28.55;13.07;;;-1.60;99.90;;;;;;5024761;28;20575;-46
2022/12/09 00:08:56;;;;;;;29.70;14.90;;;-1.70;99.90;;;;;;5065965;28;20089;-45
2022/12/09 00:11:23;;;;;;;24.70;11.38;;;-1.70;99.90;;;;;;5045349;28;20082;-46
2022/12/09 00:13:50;;;;;;;27.33;12.65;;;-1.70;99.90;;;;;;5067016;28;20443;-46
2022/12/09 00:16:15;;;;;;;26.17;11.80;;;-1.70;99.90;;;;;;5046388;28;20405;-46
2022/12/09 00:18:41;;;;;;;30.13;12.60;;;-1.70;99.90;;;;;;5067457;28;20025;-45
2022/12/09 00:21:18;;;;;;;23.73;11.55;;;-1.70;99.90;;;;;;5046961;28;20036;-47
2022/12/09 00:23:43;;;;;;;28.40;12.40;;;-1.80;99.90;;;;;;5068164;28;20081;-50
2022/12/09 00:26:10;;;;;;;28.73;12.00;;;-1.80;99.90;;;;;;5047115;28;20037;-46
2022/12/09 00:28:36;;;;;;;32.00;12.98;;;-1.80;99.90;;;;;;5067792;28;20033;-46
2022/12/09 00:31:02;;;;;;;32.38;13.63;;;-1.80;99.90;;;;;;5047219;28;20044;-46
2022/12/09 00:33:32;;;;;;;29.27;13.10;;;-1.80;99.90;;;;;;5067897;28;20055;-45
2022/12/09 00:36:18;;;;;;;30.88;12.60;;;-1.80;99.90;;;;;;5052670;28;20057;-49
2022/12/09 00:38:43;;;;;;;19.92;9.15;;;-1.80;99.90;;;;;;5028824;28;20108;-45
2022/12/09 00:41:09;;;;;;;25.63;11.00;;;-1.90;99.90;;;;;;5064746;28;20048;-46
2022/12/09 00:43:35;;;;;;;22.38;10.32;;;-1.90;99.90;;;;;;5049057;28;20082;-45
2022/12/09 00:46:01;;;;;;;23.95;10.82;;;-1.90;99.90;;;;;;5065803;28;20028;-45
2022/12/09 00:48:27;;;;;;;27.83;11.50;;;-1.90;99.90;;;;;;5048666;28;20041;-46
2022/12/09 00:50:53;;;;;;;23.10;10.48;;;-1.90;99.90;;;;;;5065836;28;20025;-48
2022/12/09 00:53:19;;;;;;;22.70;10.13;;;-2.00;99.90;;;;;;5068194;28;20229;-48
2022/12/09 00:55:45;;;;;;;25.83;12.13;;;-2.00;99.90;;;;;;5052917;28;20038;-45
2022/12/09 00:58:12;;;;;;;30.23;11.70;;;-2.00;99.90;;;;;;5068244;28;20017;-46
2022/12/09 01:00:38;;;;;;;27.00;11.48;;;-2.00;99.90;;;;;;5051519;28;20424;-45
2022/12/09 01:03:03;;;;;;;27.45;12.65;;;-2.00;99.90;;;;;;5068451;28;20489;-45
2022/12/09 01:05:28;;;;;;;28.58;12.55;;;-2.00;99.90;;;;;;5047758;28;20096;-46
2022/12/09 01:07:54;;;;;;;28.30;11.88;;;-2.10;99.90;;;;;;5067637;28;20112;-46
2022/12/09 01:10:20;;;;;;;29.65;13.35;;;-2.10;99.90;;;;;;5049429;28;21107;-50
2022/12/09 01:12:45;;;;;;;27.17;12.30;;;-2.10;99.90;;;;;;5068349;28;20067;-46
2022/12/09 01:15:11;;;;;;;31.58;13.13;;;-2.10;99.90;;;;;;5047996;28;20029;-46
2022/12/09 01:17:38;;;;;;;29.30;12.75;;;-2.20;99.90;;;;;;5068101;28;20029;-46
2022/12/09 01:20:06;;;;;;;28.58;12.77;;;-2.20;99.90;;;;;;5046856;28;20040;-46
2022/12/09 01:22:31;;;;;;;25.80;10.57;;;-2.20;99.90;;;;;;5067971;28;20034;-46
2022/12/09 01:24:57;;;;;;;23.35;11.00;;;-2.30;99.90;;;;;;5048527;28;20091;-48
2022/12/09 01:27:23;;;;;;;24.27;11.80;;;-2.30;99.90;;;;;;5065791;28;20040;-45
2022/12/09 01:29:49;;;;;;;22.75;11.57;;;-2.30;99.90;;;;;;5046136;28;20546;-46
2022/12/09 01:32:14;;;;;;;30.40;14.13;;;-2.40;99.90;;;;;;5069036;28;20054;-47
2022/12/09 01:34:41;;;;;;;29.20;14.02;;;-2.40;99.90;;;;;;5049994;28;20032;-47
2022/12/09 01:37:07;;;;;;;25.95;11.52;;;-2.40;99.90;;;;;;5070936;28;20060;-45
2022/12/09 01:39:32;;;;;;;22.10;11.25;;;-2.50;99.90;;;;;;5050152;28;20073;-46
2022/12/09 01:42:01;;;;;;;25.95;12.18;;;-2.60;99.90;;;;;;5070702;28;20075;-46
2022/12/09 01:44:27;;;;;;;29.15;12.23;;;-2.50;99.90;;;;;;5049886;28;20040;-46
2022/12/09 01:46:57;;;;;;;23.95;11.73;;;-2.60;99.90;;;;;;5070376;28;20481;-45
2022/12/09 01:49:27;;;;;;;24.92;12.07;;;-2.60;99.90;;;;;;5041974;28;20048;-45
2022/12/09 01:52:13;;;;;;;31.75;12.68;;;-2.70;99.90;;;;;;5071158;28;20024;-45
2022/12/09 01:54:42;;;;;;;29.30;11.75;;;-2.70;99.90;;;;;;5049540;28;20061;-46
2022/12/09 01:57:08;;;;;;;29.45;12.43;;;-2.70;99.90;;;;;;5070742;28;20400;-46
2022/12/09 01:59:34;;;;;;;30.52;11.27;;;-2.70;99.90;;;;;;5049587;28;20028;-45
2022/12/09 02:02:02;;;;;;;28.17;12.70;;;-2.80;99.90;;;;;;5070509;28;20024;-45
2022/12/09 02:04:29;;;;;;;29.20;11.98;;;-2.80;99.90;;;;;;5049363;28;20458;-45
2022/12/09 02:06:58;;;;;;;21.75;10.07;;;-2.80;99.90;;;;;;5025196;28;20390;-47
2022/12/09 02:09:24;;;;;;;34.33;13.73;;;-2.70;99.90;;;;;;5055951;28;20048;-45
2022/12/09 02:12:17;;;;;;;32.20;12.43;;;-2.70;99.90;;;;;;5070166;28;20044;-45
2022/12/09 02:15:11;;;;;;;36.90;11.07;;;-2.70;99.90;;;;;;5044497;28;20025;-45
2022/12/09 02:17:47;;;;;;;31.45;10.25;;;-2.60;99.90;;;;;;5031059;28;20029;-45
2022/12/09 02:20:27;;;;;;;28.38;11.13;;;-2.60;99.90;;;;;;5048460;28;20120;-45
2022/12/09 02:23:10;;;;;;;40.95;12.20;;;-2.60;99.90;;;;;;5029213;28;20061;-47
2022/12/09 02:25:44;;;;;;;26.63;9.55;;;-2.50;99.90;;;;;;5070601;28;20086;-46
2022/12/09 02:28:34;;;;;;;39.97;12.52;;;-2.40;99.90;;;;;;5033662;28;20464;-45
2022/12/09 02:31:39;;;;;;;29.42;10.35;;;-2.40;99.90;;;;;;5070594;28;20520;-46
2022/12/09 02:34:19;;;;;;;39.80;12.30;;;-2.30;99.90;;;;;;5048728;28;20040;-46
2022/12/09 02:37:06;;;;;;;45.90;14.15;;;-2.20;99.90;;;;;;5050372;28;20037;-45
2022/12/09 02:39:48;;;;;;;42.67;12.25;;;-2.20;99.90;;;;;;5042459;28;20698;-46
2022/12/09 02:42:17;;;;;;;62.67;13.80;;;-2.10;99.90;;;;;;5029716;28;20575;-46
2022/12/09 02:44:46;;;;;;;57.42;13.27;;;-2.10;99.90;;;;;;5052285;28;20069;-45
2022/12/09 02:47:14;;;;;;;50.80;14.13;;;-2.00;99.90;;;;;;5069571;28;20040;-45
2022/12/09 02:49:41;;;;;;;59.03;14.50;;;-2.00;99.90;;;;;;5048481;28;20064;-46
2022/12/09 02:52:07;;;;;;;73.13;13.32;;;-2.00;99.90;;;;;;5069420;28;20123;-47
2022/12/09 02:54:35;;;;;;;55.55;11.68;;;-1.90;99.90;;;;;;5048547;28;20029;-45
2022/12/09 02:57:11;;;;;;;60.10;10.85;;;-2.00;99.90;;;;;;5069556;28;20025;-45
2022/12/09 02:59:36;;;;;;;54.88;12.10;;;-2.00;99.90;;;;;;5042610;28;20076;-46
2022/12/09 03:02:22;;;;;;;39.67;12.27;;;-2.00;99.90;;;;;;5069075;28;20072;-46
2022/12/09 03:05:07;;;;;;;26.27;7.70;;;-2.00;99.90;;;;;;5043756;28;20116;-43
2022/12/09 03:07:42;;;;;;;19.38;5.40;;;-2.00;99.90;;;;;;5069705;28;20480;-45
2022/12/09 03:10:20;;;;;;;42.30;8.97;;;-2.00;99.90;;;;;;5046835;28;20045;-45
2022/12/09 03:12:55;;;;;;;58.15;11.82;;;-2.00;99.90;;;;;;5029769;28;20026;-45
2022/12/09 03:15:25;;;;;;;44.97;9.17;;;-1.90;99.90;;;;;;5029834;28;20083;-48
2022/12/09 03:17:52;;;;;;;32.13;9.43;;;-1.90;99.90;;;;;;5029607;28;20760;-45
2022/12/09 03:20:24;;;;;;;29.80;10.05;;;-1.80;99.90;;;;;;5029804;28;20505;-45
2022/12/09 03:22:55;;;;;;;34.45;11.55;;;-1.80;99.90;;;;;;5029645;28;20025;-45
2022/12/09 03:25:25;;;;;;;35.78;12.70;;;-1.80;99.90;;;;;;5029697;28;20108;-46
2022/12/09 03:28:11;;;;;;;40.00;12.80;;;-1.80;99.90;;;;;;5029625;28;20037;-44
2022/12/09 03:30:40;;;;;;;32.75;12.15;;;-1.70;99.90;;;;;;5029482;28;20120;-44
2022/12/09 03:33:08;;;;;;;32.72;11.65;;;-1.70;99.90;;;;;;5066695;28;20520;-45
2022/12/09 03:35:39;;;;;;;33.00;12.82;;;-1.70;99.90;;;;;;5067177;28;20496;-43
2022/12/09 03:38:09;;;;;;;22.13;9.88;;;-1.70;99.90;;;;;;5069357;28;20024;-44
2022/12/09 03:40:36;;;;;;;28.85;12.35;;;-1.70;99.90;;;;;;5051769;28;20056;-44
2022/12/09 03:43:11;;;;;;;28.58;12.00;;;-1.70;99.90;;;;;;5069055;28;20067;-43
2022/12/09 03:45:37;;;;;;;30.05;12.75;;;-1.60;99.90;;;;;;5036987;28;20031;-44
2022/12/09 03:48:03;;;;;;;28.95;12.13;;;-1.70;99.90;;;;;;5069025;28;20021;-47
2022/12/09 03:50:38;;;;;;;36.80;12.77;;;-1.60;99.90;;;;;;5051379;28;20017;-44
2022/12/09 03:53:09;;;;;;;27.93;10.80;;;-1.60;99.90;;;;;;5069110;28;20025;-44
2022/12/09 03:55:40;;;;;;;22.88;9.48;;;-1.60;99.90;;;;;;5036241;28;20066;-43
2022/12/09 03:58:08;;;;;;;34.85;12.13;;;-1.60;99.90;;;;;;5068838;28;20028;-43
2022/12/09 04:00:36;;;;;;;26.23;10.82;;;-1.60;99.90;;;;;;5051347;28;20051;-44
2022/12/09 04:03:03;;;;;;;35.10;11.98;;;-1.50;99.90;;;;;;5069363;28;20078;-44
2022/12/09 04:05:28;;;;;;;30.98;14.05;;;-1.50;99.90;;;;;;5051385;28;20067;-43
2022/12/09 04:07:54;;;;;;;31.02;14.13;;;-1.50;99.90;;;;;;5068769;28;20032;-45
2022/12/09 04:10:19;;;;;;;32.80;13.63;;;-1.50;99.90;;;;;;5069189;28;20035;-44
2022/12/09 04:12:45;;;;;;;37.17;14.70;;;-1.40;99.90;;;;;;5069004;28;20016;-44
2022/12/09 04:15:10;;;;;;;32.53;13.23;;;-1.40;99.90;;;;;;5068940;28;20025;-44
2022/12/09 04:17:36;;;;;;;32.92;12.63;;;-1.40;99.90;;;;;;5066938;28;20516;-44
2022/12/09 04:20:01;;;;;;;32.25;12.68;;;-1.40;99.90;;;;;;5049486;28;20032;-47
2022/12/09 04:22:28;;;;;;;32.40;11.38;;;-1.40;99.90;;;;;;5065987;28;20051;-44
2022/12/09 04:24:54;;;;;;;30.10;11.82;;;-1.40;99.90;;;;;;5048968;28;20055;-46
2022/12/09 04:27:19;;;;;;;34.95;13.32;;;-1.30;99.90;;;;;;5066125;28;20510;-46
2022/12/09 04:29:45;;;;;;;34.03;12.20;;;-1.30;99.90;;;;;;5047981;28;20028;-47
2022/12/09 04:32:10;;;;;;;32.60;12.40;;;-1.20;99.90;;;;;;5066130;28;20025;-43
2022/12/09 04:34:36;;;;;;;30.98;13.15;;;-1.20;99.90;;;;;;5068780;28;20075;-44
2022/12/09 04:37:01;;;;;;;35.33;13.88;;;-1.20;99.90;;;;;;5047368;28;20040;-44
2022/12/09 04:39:27;;;;;;;35.83;13.75;;;-1.20;99.90;;;;;;5067842;28;20036;-44
2022/12/09 04:41:52;;;;;;;34.17;13.98;;;-1.20;99.90;;;;;;5047369;28;20052;-44
2022/12/09 04:44:18;;;;;;;35.38;14.35;;;-1.10;99.90;;;;;;5067928;28;20042;-43
2022/12/09 04:46:43;;;;;;;33.40;12.65;;;-1.10;99.90;;;;;;5047222;28;20033;-43
2022/12/09 04:49:09;;;;;;;28.67;12.70;;;-1.10;99.90;;;;;;5067918;28;20047;-44
2022/12/09 04:51:34;;;;;;;38.15;15.07;;;-1.00;99.90;;;;;;5047283;28;20061;-43
2022/12/09 04:54:00;;;;;;;38.47;15.68;;;-1.00;99.90;;;;;;5047964;28;20096;-44
2022/12/09 04:56:25;;;;;;;37.13;15.27;;;-1.00;99.90;;;;;;5067692;28;20037;-44
2022/12/09 04:58:51;;;;;;;26.08;12.18;;;-0.90;99.90;;;;;;5055700;28;20036;-44
2022/12/09 05:01:19;;;;;;;36.45;15.68;;;-0.90;99.90;;;;;;5048869;28;20079;-44
2022/12/09 05:03:52;;;;;;;34.72;15.23;;;-0.90;99.90;;;;;;5058465;28;20033;-44
2022/12/09 05:06:18;;;;;;;30.75;14.48;;;-0.90;99.90;;;;;;5037974;28;20041;-44
2022/12/09 05:08:44;;;;;;;33.38;13.57;;;-0.90;99.90;;;;;;5052386;28;20032;-43
2022/12/09 05:11:12;;;;;;;35.65;16.20;;;-0.90;99.90;;;;;;5071268;28;20494;-44
2022/12/09 05:13:37;;;;;;;33.85;13.73;;;-1.00;99.90;;;;;;5052041;28;20184;-44
2022/12/09 05:16:09;;;;;;;32.33;13.15;;;-1.00;99.90;;;;;;5065408;28;20108;-44
2022/12/09 05:18:35;;;;;;;28.75;13.65;;;-1.00;99.90;;;;;;5070994;28;20029;-43
2022/12/09 05:21:08;;;;;;;30.83;13.52;;;-1.00;99.90;;;;;;5051103;28;20055;-45
2022/12/09 05:23:34;;;;;;;28.55;12.48;;;-1.00;99.90;;;;;;5065033;28;20036;-46
2022/12/09 05:26:04;;;;;;;26.10;12.85;;;-1.00;99.90;;;;;;5050384;28;20121;-43
2022/12/09 05:28:31;;;;;;;22.15;10.27;;;-1.00;99.90;;;;;;5071048;28;20039;-44
2022/12/09 05:31:04;;;;;;;28.70;12.50;;;-1.00;99.90;;;;;;5050037;28;20036;-45
2022/12/09 05:33:30;;;;;;;30.30;13.77;;;-1.00;99.90;;;;;;5070873;28;20682;-44
2022/12/09 05:35:56;;;;;;;30.83;13.07;;;-1.00;99.90;;;;;;5053821;28;20029;-44
2022/12/09 05:38:22;;;;;;;33.10;12.55;;;-1.00;99.90;;;;;;5055792;28;20496;-43
2022/12/09 05:40:47;;;;;;;27.27;12.02;;;-1.00;99.90;;;;;;5067189;28;20041;-44
2022/12/09 05:43:13;;;;;;;26.75;11.48;;;-1.00;99.90;;;;;;5051205;28;20025;-45
2022/12/09 05:45:38;;;;;;;26.83;12.75;;;-0.90;99.90;;;;;;5054119;28;20078;-43
2022/12/09 05:48:04;;;;;;;26.65;12.95;;;-1.00;99.90;;;;;;5056267;28;20029;-42
2022/12/09 05:50:29;;;;;;;28.70;11.63;;;-1.10;99.90;;;;;;5053498;28;20034;-43
2022/12/09 05:52:55;;;;;;;22.33;10.20;;;-1.10;99.90;;;;;;5071823;28;20048;-42
2022/12/09 05:55:20;;;;;;;27.60;12.38;;;-1.10;99.90;;;;;;5052371;28;20081;-42
2022/12/09 05:57:46;;;;;;;36.47;14.73;;;-1.20;99.90;;;;;;5071496;28;20028;-43
2022/12/09 06:00:12;;;;;;;27.17;11.55;;;-1.20;99.90;;;;;;5051236;28;20041;-43
2022/12/09 06:02:38;;;;;;;27.02;11.40;;;-1.30;99.90;;;;;;5071458;28;20025;-44
2022/12/09 06:05:03;;;;;;;27.83;11.43;;;-1.30;99.90;;;;;;5050246;28;20032;-42
2022/12/09 06:07:29;;;;;;;29.52;11.13;;;-1.30;99.90;;;;;;5045417;28;20091;-42
2022/12/09 06:09:54;;;;;;;31.25;11.00;;;-1.20;99.90;;;;;;5049462;28;20120;-50
2022/12/09 06:12:20;;;;;;;27.13;10.65;;;-1.20;99.90;;;;;;5070106;28;20039;-43
2022/12/09 06:14:46;;;;;;;38.05;10.80;;;-1.20;99.90;;;;;;5053266;28;20036;-43
2022/12/09 06:17:11;;;;;;;28.15;11.07;;;-1.20;99.90;;;;;;5057189;28;20040;-44
2022/12/09 06:19:37;;;;;;;30.13;11.25;;;-1.20;99.90;;;;;;5051658;28;20041;-42
2022/12/09 06:22:02;;;;;;;29.98;11.52;;;-1.10;99.90;;;;;;5059195;28;20546;-42
2022/12/09 06:24:28;;;;;;;33.67;12.27;;;-1.20;99.90;;;;;;5063594;28;20340;-42
2022/12/09 06:26:53;;;;;;;31.88;12.18;;;-1.20;99.90;;;;;;5051090;28;20409;-42
2022/12/09 06:29:19;;;;;;;32.08;11.20;;;-1.20;99.90;;;;;;5053920;28;20489;-42
2022/12/09 06:31:44;;;;;;;37.53;12.10;;;-1.20;99.90;;;;;;5069654;28;20539;-42
2022/12/09 06:34:10;;;;;;;39.65;12.60;;;-1.20;99.90;;;;;;5048981;28;20071;-42
2022/12/09 06:36:35;;;;;;;31.80;11.02;;;-1.20;99.90;;;;;;5069431;28;20063;-43
2022/12/09 06:39:03;;;;;;;27.17;9.95;;;-1.10;99.90;;;;;;5048837;28;20037;-43
2022/12/09 06:41:29;;;;;;;30.85;11.00;;;-1.10;99.90;;;;;;5059916;28;20057;-43
2022/12/09 06:43:58;;;;;;;24.90;8.77;;;-1.10;99.90;;;;;;5067663;28;20501;-43
2022/12/09 06:46:24;;;;;;;21.60;7.65;;;-1.10;99.90;;;;;;5050351;28;20424;-43
2022/12/09 06:48:50;;;;;;;31.73;10.88;;;-1.00;99.90;;;;;;5067396;28;20024;-43
2022/12/09 06:51:17;;;;;;;33.50;11.45;;;-1.00;99.90;;;;;;5050368;28;20499;-43
2022/12/09 06:53:43;;;;;;;29.85;9.55;;;-1.00;99.90;;;;;;5067504;28;20142;-42
2022/12/09 06:56:10;;;;;;;28.70;9.75;;;-1.00;99.90;;;;;;5050378;28;20090;-42
2022/12/09 06:58:36;;;;;;;29.55;11.30;;;-1.00;99.90;;;;;;5067615;28;20095;-43
2022/12/09 07:01:12;;;;;;;33.50;10.80;;;-1.00;99.90;;;;;;5050046;28;20124;-42
2022/12/09 07:03:38;;;;;;;;;;;-1.00;99.90;;;;;;5043829;28;20047;-44
2022/12/09 07:06:04;;;;;;;31.15;10.95;;;-0.90;99.90;;;;;;5069112;28;19908;-44
2022/12/09 07:08:29;;;;;;;33.08;11.52;;;-0.90;99.90;;;;;;5048362;28;20033;-43
2022/12/09 07:10:55;;;;;;;48.03;11.50;;;-1.00;99.90;;;;;;5068867;28;20153;-43
2022/12/09 07:13:21;;;;;;;46.58;11.68;;;-0.90;99.90;;;;;;5048441;28;20421;-43
2022/12/09 07:15:46;;;;;;;46.33;12.38;;;-0.90;99.90;;;;;;5068687;28;20145;-43
2022/12/09 07:18:11;;;;;;;41.25;13.75;;;-0.90;99.90;;;;;;5048400;28;20454;-43
2022/12/09 07:20:37;;;;;;;50.45;12.65;;;-1.00;99.90;;;;;;5068776;28;20033;-43
2022/12/09 07:23:02;;;;;;;31.73;11.98;;;-1.10;99.90;;;;;;5055143;28;20116;-43
2022/12/09 07:25:28;;;;;;;42.95;13.50;;;-1.10;99.90;;;;;;5049993;28;20378;-50
2022/12/09 07:27:53;;;;;;;34.30;11.70;;;-1.00;99.90;;;;;;5057292;28;20031;-44
2022/12/09 07:30:19;;;;;;;32.22;11.18;;;-1.00;99.90;;;;;;5067997;28;20488;-43
2022/12/09 07:32:44;;;;;;;28.63;9.75;;;-0.90;99.90;;;;;;5056048;28;20107;-42
2022/12/09 07:35:10;;;;;;;30.38;10.27;;;-0.90;99.90;;;;;;5049567;28;20033;-46
2022/12/09 07:37:35;;;;;;;58.17;12.57;;;-0.80;99.90;;;;;;5059727;28;20811;-46
2022/12/09 07:40:01;;;;;;;38.40;11.25;;;-0.80;99.90;;;;;;5049266;28;20126;-48
2022/12/09 07:42:26;;;;;;;35.67;11.13;;;-0.70;99.90;;;;;;5060719;28;20075;-43
2022/12/09 07:44:52;;;;;;;40.17;11.15;;;-0.70;99.90;;;;;;5049067;28;20063;-44
2022/12/09 07:47:17;;;;;;;61.75;12.90;;;-0.60;99.90;;;;;;5061963;28;20428;-44
2022/12/09 07:49:43;;;;;;;47.03;14.57;;;-0.60;99.90;;;;;;5049330;28;20112;-43
2022/12/09 07:52:08;;;;;;;42.63;13.25;;;-0.60;99.90;;;;;;5066172;28;20013;-43
2022/12/09 07:54:34;;;;;;;62.55;15.70;;;-0.60;99.90;;;;;;5069065;28;20025;-45
2022/12/09 07:56:59;;;;;;;44.00;13.68;;;-0.60;99.90;;;;;;5047639;28;20406;-48
2022/12/09 07:59:25;;;;;;;31.70;11.75;;;-0.60;99.90;;;;;;5048858;28;20108;-44
2022/12/09 08:01:50;;;;;;;44.67;13.15;;;-0.60;99.90;;;;;;5065535;28;20048;-43
2022/12/09 08:04:16;;;;;;;47.45;12.88;;;-0.70;99.90;;;;;;5048953;28;20028;-43
2022/12/09 08:06:41;;;;;;;50.50;14.43;;;-0.60;99.90;;;;;;5068018;28;20667;-44
2022/12/09 08:09:10;;;;;;;42.70;12.85;;;-0.60;99.90;;;;;;5047507;28;20037;-43
2022/12/09 08:11:36;;;;;;;44.58;12.95;;;-0.60;99.90;;;;;;5068486;28;20021;-43
2022/12/09 08:14:04;;;;;;;40.50;13.00;;;-0.50;99.90;;;;;;5047453;28;20025;-45
2022/12/09 08:16:31;;;;;;;30.33;11.30;;;-0.50;99.90;;;;;;5068217;28;20468;-48
2022/12/09 08:18:56;;;;;;;55.08;13.27;;;-0.40;99.90;;;;;;5047136;28;20055;-45
2022/12/09 08:21:32;;;;;;;39.85;13.43;;;-0.30;99.90;;;;;;5067837;28;20512;-48
2022/12/09 08:24:00;;;;;;;51.65;13.40;;;-0.20;99.90;;;;;;5040342;28;20437;-44
2022/12/09 08:26:28;;;;;;;42.45;12.48;;;-0.20;99.90;;;;;;5068146;28;20028;-45
2022/12/09 08:28:54;;;;;;;41.78;12.40;;;-0.20;99.90;;;;;;5046895;28;20551;-45
2022/12/09 08:31:24;;;;;;;34.75;11.65;;;-0.20;99.90;;;;;;5067641;28;20024;-45
2022/12/09 08:33:50;;;;;;;46.55;11.15;;;-0.20;99.90;;;;;;5046519;28;20082;-44
2022/12/09 08:36:18;;;;;;;35.40;13.52;;;-0.10;99.90;;;;;;5067488;28;20044;-48
2022/12/09 08:38:44;;;;;;;31.50;11.63;;;-0.10;99.90;;;;;;5046691;28;20454;-44
2022/12/09 08:41:12;;;;;;;39.58;12.07;;;-0.10;99.90;;;;;;5061483;28;20127;-44
2022/12/09 08:43:38;;;;;;;40.08;11.73;;;0.00;99.90;;;;;;5050660;28;20495;-49
2022/12/09 08:46:04;;;;;;;36.90;11.32;;;0.00;99.90;;;;;;5071862;28;20059;-45
2022/12/09 08:48:29;;;;;;;31.80;11.65;;;0.00;99.90;;;;;;5051091;28;20485;-47
2022/12/09 08:50:55;;;;;;;30.45;10.57;;;0.10;99.90;;;;;;5071462;28;20040;-44
2022/12/09 08:53:20;;;;;;;28.17;11.50;;;0.10;99.90;;;;;;5050965;28;20108;-43
2022/12/09 08:55:46;;;;;;;25.70;9.35;;;0.20;99.90;;;;;;5071481;28;20051;-43
2022/12/09 08:58:11;;;;;;;25.98;11.30;;;0.30;99.90;;;;;;5051277;28;20064;-44
2022/12/09 09:00:37;;;;;;;34.88;10.73;;;0.30;99.90;;;;;;5071476;28;20086;-43
2022/12/09 09:03:03;;;;;;;29.42;9.73;;;0.40;99.90;;;;;;5050801;28;20063;-43
2022/12/09 09:05:28;;;;;;;27.20;11.25;;;0.50;99.90;;;;;;5071416;28;20077;-43
2022/12/09 09:07:54;;;;;;;28.27;11.30;;;0.60;99.90;;;;;;5050773;28;20136;-43
2022/12/09 09:10:19;;;;;;;22.92;10.02;;;0.70;99.90;;;;;;5071223;28;20514;-44
2022/12/09 09:12:45;;;;;;;26.83;9.85;;;0.90;99.90;;;;;;5049401;28;20154;-44
2022/12/09 09:15:11;;;;;;;25.30;9.70;;;1.00;99.90;;;;;;5070890;28;20033;-43
2022/12/09 09:17:36;;;;;;;29.08;10.38;;;1.10;99.90;;;;;;5050510;28;20136;-44
2022/12/09 09:20:02;;;;;;;32.10;11.07;;;1.20;99.90;;;;;;5051923;28;20104;-43
2022/12/09 09:22:28;;;;;;;28.00;11.75;;;1.20;99.90;;;;;;5058613;28;20486;-44
2022/12/09 09:24:54;;;;;;;25.08;10.60;;;1.30;99.90;;;;;;5051816;28;20032;-44
2022/12/09 09:27:20;;;;;;;27.27;11.32;;;1.40;99.90;;;;;;5064459;28;20501;-43
2022/12/09 09:29:45;;;;;;;25.60;11.10;;;1.30;99.90;;;;;;5051717;28;20075;-45
2022/12/09 09:32:11;;;;;;;21.45;9.35;;;1.30;99.90;;;;;;5065515;28;20139;-43
2022/12/09 09:34:36;;;;;;;24.33;10.25;;;1.20;99.90;;;;;;5051653;28;20051;-46
2022/12/09 09:37:02;;;;;;;50.80;12.77;;;1.20;99.90;;;;;;5066587;28;20068;-51
2022/12/09 09:39:27;;;;;;;30.90;10.32;;;1.10;99.90;;;;;;5051582;28;20040;-49
2022/12/09 09:42:01;;;;;;;38.08;9.85;;;1.00;99.90;;;;;;5068453;28;20037;-46
2022/12/09 09:44:45;;;;;;;35.00;10.50;;;0.90;99.90;;;;;;5071439;28;20029;-45
2022/12/09 09:47:25;;;;;;;31.17;9.10;;;0.90;99.90;;;;;;5032963;28;20033;-50
2022/12/09 09:50:25;;;;;;;28.85;8.93;;;0.90;99.90;;;;;;5051452;28;20067;-45
2022/12/09 09:52:53;;;;;;;37.13;8.35;;;0.80;99.90;;;;;;5059155;28;20053;-46
2022/12/09 09:55:37;;;;;;;33.03;7.05;;;0.80;99.90;;;;;;5070719;28;20036;-48
2022/12/09 09:58:15;;;;;;;25.65;7.68;;;0.90;99.90;;;;;;5040072;28;20036;-46
2022/12/09 10:00:58;;;;;;;43.63;9.73;;;0.90;99.90;;;;;;5031315;28;20029;-46
2022/12/09 10:03:40;;;;;;;43.58;10.10;;;0.90;99.90;;;;;;5042850;28;20029;-47
2022/12/09 10:06:31;;;;;;;24.13;7.25;;;0.90;99.90;;;;;;5031280;28;20037;-46
2022/12/09 10:09:08;;;;;;;32.35;7.90;;;1.00;99.90;;;;;;5047176;28;20095;-46
2022/12/09 10:11:48;;;;;;;17.55;7.13;;;1.10;99.90;;;;;;5031098;28;20445;-47
2022/12/09 10:14:26;;;;;;;24.17;6.88;;;1.20;99.90;;;;;;5030976;28;20041;-46
2022/12/09 10:17:10;;;;;;;40.42;7.50;;;1.20;99.90;;;;;;5029957;28;20033;-46
2022/12/09 10:19:42;;;;;;;19.13;6.15;;;1.20;99.90;;;;;;5050853;28;20452;-47
2022/12/09 10:22:18;;;;;;;24.58;5.32;;;1.10;99.90;;;;;;5032054;28;20040;-48
2022/12/09 10:24:51;;;;;;;17.05;6.07;;;1.10;99.90;;;;;;5050908;28;20013;-49
2022/12/09 10:27:40;;;;;;;24.58;6.50;;;1.10;99.90;;;;;;5033298;28;20056;-46
2022/12/09 10:30:10;;;;;;;30.77;7.47;;;1.20;99.90;;;;;;5050524;28;20025;-47
2022/12/09 10:32:37;;;;;;;18.15;6.07;;;1.20;99.90;;;;;;5061511;28;20090;-48
2022/12/09 10:35:14;;;;;;;24.88;6.63;;;1.10;99.90;;;;;;5050500;28;20113;-50
2022/12/09 10:37:39;;;;;;;32.08;7.20;;;1.10;99.90;;;;;;5060595;28;20611;-51
2022/12/09 10:40:18;;;;;;;20.90;6.20;;;1.10;99.90;;;;;;5050446;28;20051;-48
2022/12/09 10:45:45;;;;;;;22.77;7.10;;;1.10;99.90;;;;;;5030557;28;20090;-47
2022/12/09 10:48:28;;;;;;;23.00;6.80;;;1.10;99.90;;;;;;5040224;28;20039;-48
2022/12/09 10:51:00;;;;;;;24.42;7.35;;;1.10;99.90;;;;;;5030498;28;20498;-48
2022/12/09 10:53:27;;;;;;;18.50;6.82;;;1.10;99.90;;;;;;5042404;28;20043;-46
2022/12/09 10:55:55;;;;;;;28.98;6.60;;;1.10;99.90;;;;;;5069497;28;20048;-46
2022/12/09 10:58:24;;;;;;;54.05;8.07;;;1.10;99.90;;;;;;5048458;28;20036;-48
2022/12/09 11:01:06;;;;;;;36.00;7.15;;;0.90;99.90;;;;;;5055339;28;20527;-46
2022/12/09 11:03:33;;;;;;;26.58;5.65;;;0.60;99.90;;;;;;5039717;28;20025;-49
2022/12/09 11:06:19;;;;;;;20.38;7.00;;;0.50;99.90;;;;;;5044187;28;20036;-46
2022/12/09 11:08:51;;;;;;;36.60;8.13;;;0.50;99.90;;;;;;5040466;28;20040;-46
2022/12/09 11:11:17;;;;;;;61.42;8.13;;;0.30;99.90;;;;;;5050152;28;20045;-46
2022/12/09 11:13:43;;;;;;;41.75;8.82;;;0.10;99.90;;;;;;5068083;28;20036;-45
2022/12/09 11:16:10;;;;;;;32.25;8.00;;;0.00;99.90;;;;;;5047310;28;20055;-46
2022/12/09 11:18:47;;;;;;;22.55;6.82;;;0.00;99.90;;;;;;5049762;28;20402;-48
2022/12/09 11:21:34;;;;;;;47.67;7.75;;;0.00;99.90;;;;;;5046851;28;20435;-47
2022/12/09 11:24:00;;;;;;;27.10;7.78;;;0.00;99.90;;;;;;5028847;28;20084;-48
2022/12/09 11:26:33;;;;;;;42.33;6.18;;;0.10;99.90;;;;;;5047554;28;20505;-47
2022/12/09 11:29:03;;;;;;;25.92;6.45;;;0.20;99.90;;;;;;5028848;28;20040;-46
2022/12/09 11:31:31;;;;;;;30.55;6.90;;;0.20;99.90;;;;;;5048173;28;20021;-49
2022/12/09 11:34:13;;;;;;;59.92;8.82;;;0.20;99.90;;;;;;5065866;28;20049;-47
2022/12/09 11:36:45;;;;;;;51.17;8.27;;;0.30;99.90;;;;;;5068095;28;20025;-46
2022/12/09 11:39:30;;;;;;;23.38;5.53;;;0.40;99.90;;;;;;5035362;28;20082;-49
2022/12/09 11:42:12;;;;;;;46.00;7.45;;;0.40;99.90;;;;;;5066731;28;20612;-46
2022/12/09 11:44:41;;;;;;;30.30;5.43;;;0.50;99.90;;;;;;5038619;28;20374;-47
2022/12/09 11:47:12;;;;;;;44.75;7.63;;;0.60;99.90;;;;;;5049772;28;20025;-46
2022/12/09 11:49:52;;;;;;;31.67;6.72;;;0.60;99.90;;;;;;5068035;28;20024;-49
2022/12/09 11:52:17;;;;;;;40.83;7.50;;;0.50;99.90;;;;;;5044122;28;20027;-47
2022/12/09 11:55:09;;;;;;;35.13;7.00;;;0.40;99.90;;;;;;5067418;28;20029;-48
2022/12/09 11:57:44;;;;;;;24.83;7.15;;;0.20;99.90;;;;;;5037790;28;20467;-46
2022/12/09 12:00:20;;;;;;;53.45;7.72;;;0.10;99.90;;;;;;5063873;28;20036;-48
2022/12/09 12:03:05;;;;;;;38.80;5.97;;;0.10;99.90;;;;;;5065889;28;20040;-49
2022/12/09 12:05:37;;;;;;;18.13;6.65;;;0.20;99.90;;;;;;5027787;28;20111;-46
2022/12/09 12:08:32;;;;;;;23.77;6.43;;;0.20;99.90;;;;;;5039896;28;20124;-50
2022/12/09 12:11:09;;;;;;;12.32;5.65;;;0.40;99.90;;;;;;5052648;28;20037;-49
2022/12/09 12:13:48;;;;;;;12.50;4.93;;;0.60;99.90;;;;;;5058770;28;20033;-47
2022/12/09 12:16:16;;;;;;;20.88;7.30;;;0.70;99.90;;;;;;5043849;28;20044;-46
2022/12/09 12:19:03;;;;;;;21.42;8.93;;;0.70;99.90;;;;;;5047097;28;20025;-50
2022/12/09 12:21:50;;;;;;;26.25;7.65;;;0.40;99.90;;;;;;5037243;28;20064;-47
2022/12/09 12:24:34;;;;;;;15.20;7.05;;;0.40;99.90;;;;;;5026568;28;20037;-46
2022/12/09 12:27:19;;;;;;;23.10;7.05;;;0.40;99.90;;;;;;5041812;28;20479;-47
2022/12/09 12:29:58;;;;;;;21.35;6.00;;;0.40;99.90;;;;;;5026562;28;20037;-47
2022/12/09 12:32:34;;;;;;;22.02;6.47;;;0.30;99.90;;;;;;5027639;28;20529;-49
2022/12/09 12:35:23;;;;;;;61.22;9.48;;;0.20;99.90;;;;;;5031848;28;20033;-47
2022/12/09 12:38:03;;;;;;;57.47;8.77;;;0.30;99.90;;;;;;5046235;28;20047;-46
2022/12/09 12:40:50;;;;;;;18.60;6.50;;;0.20;99.90;;;;;;5029254;28;20029;-47
2022/12/09 12:46:40;;;;;;;28.60;6.85;;;0.30;99.90;;;;;;5037055;28;20118;-48
2022/12/09 12:49:37;;;;;;;15.82;6.85;;;0.40;99.90;;;;;;5026410;28;20049;-48
2022/12/09 12:52:30;;;;;;;16.60;7.43;;;0.50;99.90;;;;;;5042180;28;20037;-46
2022/12/09 12:55:16;;;;;;;18.25;8.68;;;0.50;99.90;;;;;;5024644;28;20720;-47